sensor_id;sensor_type;location;lat;lon;timestamp;pressure;altitude;pressure_sealevel;temperature;humidity
33163;BME280;29282;45.656;11.302;2023-04-07T00:02:14;98418.25;;;18.10;45.11
33163;BME280;29282;45.656;11.302;2023-04-07T00:04:39;98421.00;;;18.10;45.01
33163;BME280;29282;45.656;11.302;2023-04-07T00:07:05;98414.72;;;18.10;45.03
33163;BME280;29282;45.656;11.302;2023-04-07T00:09:30;98417.47;;;18.10;44.97
33163;BME280;29282;45.656;11.302;2023-04-07T00:11:56;98413.91;;;18.09;44.93
33163;BME280;29282;45.656;11.302;2023-04-07T00:14:21;98411.16;;;18.09;44.91
33163;BME280;29282;45.656;11.302;2023-04-07T00:16:47;98404.88;;;18.08;45.08
33163;BME280;29282;45.656;11.302;2023-04-07T00:19:12;98409.56;;;18.08;44.89
33163;BME280;29282;45.656;11.302;2023-04-07T00:21:37;98403.25;;;18.07;44.79
33163;BME280;29282;45.656;11.302;2023-04-07T00:24:03;98397.78;;;18.07;44.94
33163;BME280;29282;45.656;11.302;2023-04-07T00:26:29;98401.34;;;18.08;44.71
33163;BME280;29282;45.656;11.302;2023-04-07T00:28:57;98397.78;;;18.07;44.90
33163;BME280;29282;45.656;11.302;2023-04-07T00:31:23;98402.94;;;18.09;44.82
33163;BME280;29282;45.656;11.302;2023-04-07T00:33:48;98397.78;;;18.07;44.79
33163;BME280;29282;45.656;11.302;2023-04-07T00:36:14;98399.41;;;18.08;44.91
33163;BME280;29282;45.656;11.302;2023-04-07T00:38:39;98403.75;;;18.10;44.71
33163;BME280;29282;45.656;11.302;2023-04-07T00:41:05;98397.91;;;18.11;44.74
33163;BME280;29282;45.656;11.302;2023-04-07T00:43:31;98392.13;;;18.13;44.58
33163;BME280;29282;45.656;11.302;2023-04-07T00:45:56;98396.81;;;18.12;44.51
33163;BME280;29282;45.656;11.302;2023-04-07T00:48:22;98397.59;;;18.13;44.67
33163;BME280;29282;45.656;11.302;2023-04-07T00:50:47;98392.91;;;18.13;44.60
33163;BME280;29282;45.656;11.302;2023-04-07T00:53:13;98391.31;;;18.12;44.71
33163;BME280;29282;45.656;11.302;2023-04-07T00:55:39;98388.59;;;18.12;44.57
33163;BME280;29282;45.656;11.302;2023-04-07T00:58:05;98388.59;;;18.12;44.63
33163;BME280;29282;45.656;11.302;2023-04-07T01:00:32;98392.91;;;18.13;44.84
33163;BME280;29282;45.656;11.302;2023-04-07T01:03:13;98394.53;;;18.14;44.64
33163;BME280;29282;45.656;11.302;2023-04-07T01:05:45;98385.50;;;18.14;44.59
33163;BME280;29282;45.656;11.302;2023-04-07T01:08:24;98389.03;;;18.14;44.54
33163;BME280;29282;45.656;11.302;2023-04-07T01:13:32;98392.59;;;18.15;44.47
33163;BME280;29282;45.656;11.302;2023-04-07T01:16:03;98387.94;;;18.15;44.49
33163;BME280;29282;45.656;11.302;2023-04-07T01:18:32;98385.19;;;18.15;44.46
33163;BME280;29282;45.656;11.302;2023-04-07T01:21:02;98382.44;;;18.15;44.51
33163;BME280;29282;45.656;11.302;2023-04-07T01:23:46;98385.97;;;18.16;44.50
33163;BME280;29282;45.656;11.302;2023-04-07T01:26:19;98386.78;;;18.16;44.52
33163;BME280;29282;45.656;11.302;2023-04-07T01:28:55;98387.94;;;18.15;44.46
33163;BME280;29282;45.656;11.302;2023-04-07T01:31:22;98386.28;;;18.14;44.53
33163;BME280;29282;45.656;11.302;2023-04-07T01:33:51;98380.00;;;18.14;44.45
33163;BME280;29282;45.656;11.302;2023-04-07T01:36:18;98381.28;;;18.16;44.36
33163;BME280;29282;45.656;11.302;2023-04-07T01:38:47;98387.56;;;18.17;44.37
33163;BME280;29282;45.656;11.302;2023-04-07T01:41:14;98379.03;;;18.18;44.33
33163;BME280;29282;45.656;11.302;2023-04-07T01:43:41;98384.03;;;18.16;44.28
33163;BME280;29282;45.656;11.302;2023-04-07T01:46:08;98381.28;;;18.16;44.21
33163;BME280;29282;45.656;11.302;2023-04-07T01:48:34;98390.00;;;18.18;44.29
33163;BME280;29282;45.656;11.302;2023-04-07T01:51:03;98377.41;;;18.17;44.30
33163;BME280;29282;45.656;11.302;2023-04-07T01:53:29;98380.16;;;18.17;44.36
33163;BME280;29282;45.656;11.302;2023-04-07T01:55:54;98375.00;;;18.16;44.14
33163;BME280;29282;45.656;11.302;2023-04-07T01:58:20;98385.19;;;18.15;44.29
33163;BME280;29282;45.656;11.302;2023-04-07T02:00:45;98381.28;;;18.16;44.06
33163;BME280;29282;45.656;11.302;2023-04-07T02:03:19;98378.91;;;18.15;44.39
33163;BME280;29282;45.656;11.302;2023-04-07T02:05:48;98380.50;;;18.16;44.19
33163;BME280;29282;45.656;11.302;2023-04-07T02:08:19;98374.22;;;18.15;44.30
33163;BME280;29282;45.656;11.302;2023-04-07T02:10:47;98382.75;;;18.14;44.29
33163;BME280;29282;45.656;11.302;2023-04-07T02:13:16;98380.00;;;18.14;44.29
33163;BME280;29282;45.656;11.302;2023-04-07T02:15:43;98382.44;;;18.15;44.24
33163;BME280;29282;45.656;11.302;2023-04-07T02:18:12;98382.44;;;18.15;44.14
33163;BME280;29282;45.656;11.302;2023-04-07T02:20:40;98382.44;;;18.15;44.27
33163;BME280;29282;45.656;11.302;2023-04-07T02:23:07;98383.25;;;18.16;44.09
33163;BME280;29282;45.656;11.302;2023-04-07T02:25:33;98387.13;;;18.15;44.11
33163;BME280;29282;45.656;11.302;2023-04-07T02:27:59;98382.75;;;18.14;44.06
33163;BME280;29282;45.656;11.302;2023-04-07T02:30:26;98381.63;;;18.15;44.20
33163;BME280;29282;45.656;11.302;2023-04-07T02:32:52;98385.19;;;18.15;43.96
33163;BME280;29282;45.656;11.302;2023-04-07T02:35:18;98385.50;;;18.14;44.23
33163;BME280;29282;45.656;11.302;2023-04-07T02:37:45;98382.75;;;18.14;44.04
33163;BME280;29282;45.656;11.302;2023-04-07T02:40:11;98384.38;;;18.15;44.25
33163;BME280;29282;45.656;11.302;2023-04-07T02:42:36;98378.06;;;18.14;44.03
33163;BME280;29282;45.656;11.302;2023-04-07T02:45:06;98380.81;;;18.14;44.23
33163;BME280;29282;45.656;11.302;2023-04-07T02:47:32;98373.41;;;18.15;43.92
33163;BME280;29282;45.656;11.302;2023-04-07T02:49:58;98371.78;;;18.14;43.97
33163;BME280;29282;45.656;11.302;2023-04-07T02:52:24;98369.84;;;18.14;43.95
33163;BME280;29282;45.656;11.302;2023-04-07T02:54:49;98367.09;;;18.14;43.94
33163;BME280;29282;45.656;11.302;2023-04-07T02:57:15;98370.66;;;18.15;43.94
33163;BME280;29282;45.656;11.302;2023-04-07T02:59:40;98359.69;;;18.15;43.88
33163;BME280;29282;45.656;11.302;2023-04-07T03:02:06;98360.50;;;18.15;44.06
33163;BME280;29282;45.656;11.302;2023-04-07T03:04:31;98357.75;;;18.15;44.02
33163;BME280;29282;45.656;11.302;2023-04-07T03:06:57;98355.81;;;18.16;43.92
33163;BME280;29282;45.656;11.302;2023-04-07T03:09:23;98355.34;;;18.14;43.92
33163;BME280;29282;45.656;11.302;2023-04-07T03:11:48;98361.63;;;18.14;43.88
33163;BME280;29282;45.656;11.302;2023-04-07T03:14:14;98363.56;;;18.14;44.01
33163;BME280;29282;45.656;11.302;2023-04-07T03:16:40;98362.75;;;18.13;44.02
33163;BME280;29282;45.656;11.302;2023-04-07T03:19:06;98354.53;;;18.13;43.78
33163;BME280;29282;45.656;11.302;2023-04-07T03:21:31;98361.63;;;18.14;43.99
33163;BME280;29282;45.656;11.302;2023-04-07T03:23:57;98356.13;;;18.14;43.92
33163;BME280;29282;45.656;11.302;2023-04-07T03:26:22;98361.16;;;18.12;43.94
33163;BME280;29282;45.656;11.302;2023-04-07T03:28:48;98361.97;;;18.13;43.86
33163;BME280;29282;45.656;11.302;2023-04-07T03:31:13;98354.22;;;18.15;44.05
33163;BME280;29282;45.656;11.302;2023-04-07T03:33:39;98349.06;;;18.13;43.71
33163;BME280;29282;45.656;11.302;2023-04-07T03:36:05;98350.66;;;18.14;43.83
33163;BME280;29282;45.656;11.302;2023-04-07T03:38:30;98354.22;;;18.15;43.71
33163;BME280;29282;45.656;11.302;2023-04-07T03:40:56;98355.81;;;18.16;43.63
33163;BME280;29282;45.656;11.302;2023-04-07T03:43:21;98354.22;;;18.15;43.66
33163;BME280;29282;45.656;11.302;2023-04-07T03:45:47;98347.91;;;18.14;43.66
33163;BME280;29282;45.656;11.302;2023-04-07T03:48:12;98341.31;;;18.15;43.79
33163;BME280;29282;45.656;11.302;2023-04-07T03:50:39;98347.59;;;18.16;43.65
33163;BME280;29282;45.656;11.302;2023-04-07T03:53:05;98355.03;;;18.15;43.64
33163;BME280;29282;45.656;11.302;2023-04-07T03:55:31;98355.81;;;18.16;43.81
33163;BME280;29282;45.656;11.302;2023-04-07T03:57:57;98352.28;;;18.15;43.78
33163;BME280;29282;45.656;11.302;2023-04-07T04:00:23;98355.03;;;18.15;43.76
33163;BME280;29282;45.656;11.302;2023-04-07T04:02:48;98356.63;;;18.16;43.58
33163;BME280;29282;45.656;11.302;2023-04-07T04:05:14;98365.63;;;18.17;43.61
33163;BME280;29282;45.656;11.302;2023-04-07T04:07:39;98357.75;;;18.15;43.89
33163;BME280;29282;45.656;11.302;2023-04-07T04:10:05;98355.47;;;18.17;43.54
33163;BME280;29282;45.656;11.302;2023-04-07T04:12:31;98351.13;;;18.16;43.71
33163;BME280;29282;45.656;11.302;2023-04-07T04:14:57;98342.41;;;18.14;43.68
33163;BME280;29282;45.656;11.302;2023-04-07T04:17:22;98341.31;;;18.15;43.71
33163;BME280;29282;45.656;11.302;2023-04-07T04:19:48;98344.84;;;18.16;43.39
33163;BME280;29282;45.656;11.302;2023-04-07T04:22:14;98344.06;;;18.15;43.57
33163;BME280;29282;45.656;11.302;2023-04-07T04:24:39;98344.06;;;18.15;43.53
33163;BME280;29282;45.656;11.302;2023-04-07T04:27:06;98347.59;;;18.16;43.48
33163;BME280;29282;45.656;11.302;2023-04-07T04:29:32;98342.09;;;18.16;43.79
33163;BME280;29282;45.656;11.302;2023-04-07T04:31:58;98344.06;;;18.15;43.79
33163;BME280;29282;45.656;11.302;2023-04-07T04:34:23;98351.47;;;18.15;43.75
33163;BME280;29282;45.656;11.302;2023-04-07T04:36:49;98351.13;;;18.16;43.36
33163;BME280;29282;45.656;11.302;2023-04-07T04:39:14;98360.16;;;18.17;43.62
33163;BME280;29282;45.656;11.302;2023-04-07T04:41:40;98358.56;;;18.16;43.48
33163;BME280;29282;45.656;11.302;2023-04-07T04:44:05;98359.34;;;18.16;43.51
33163;BME280;29282;45.656;11.302;2023-04-07T04:46:32;98360.16;;;18.17;43.34
33163;BME280;29282;45.656;11.302;2023-04-07T04:48:57;98362.59;;;18.18;43.41
33163;BME280;29282;45.656;11.302;2023-04-07T04:51:23;98361.44;;;18.19;43.48
33163;BME280;29282;45.656;11.302;2023-04-07T04:53:48;98359.34;;;18.16;43.39
33163;BME280;29282;45.656;11.302;2023-04-07T04:56:14;98365.31;;;18.18;43.36
33163;BME280;29282;45.656;11.302;2023-04-07T04:58:40;98361.44;;;18.19;43.42
33163;BME280;29282;45.656;11.302;2023-04-07T05:01:10;98361.44;;;18.19;43.43
33163;BME280;29282;45.656;11.302;2023-04-07T05:03:36;98363.03;;;18.20;43.51
33163;BME280;29282;45.656;11.302;2023-04-07T05:06:01;98361.44;;;18.19;43.28
33163;BME280;29282;45.656;11.302;2023-04-07T05:08:27;98359.84;;;18.18;43.59
33163;BME280;29282;45.656;11.302;2023-04-07T05:10:52;98362.59;;;18.18;43.49
33163;BME280;29282;45.656;11.302;2023-04-07T05:13:18;98358.69;;;18.19;43.49
33163;BME280;29282;45.656;11.302;2023-04-07T05:15:43;98359.84;;;18.18;43.46
33163;BME280;29282;45.656;11.302;2023-04-07T05:18:09;98361.75;;;18.18;43.47
33163;BME280;29282;45.656;11.302;2023-04-07T05:20:34;98358.22;;;18.17;43.38
33163;BME280;29282;45.656;11.302;2023-04-07T05:23:00;98366.44;;;18.17;43.53
33163;BME280;29282;45.656;11.302;2023-04-07T05:25:25;98364.50;;;18.18;43.34
33163;BME280;29282;45.656;11.302;2023-04-07T05:27:51;98361.75;;;18.18;43.33
33163;BME280;29282;45.656;11.302;2023-04-07T05:30:16;98358.22;;;18.17;43.39
33163;BME280;29282;45.656;11.302;2023-04-07T05:32:42;98360.16;;;18.17;43.20
33163;BME280;29282;45.656;11.302;2023-04-07T05:35:08;98365.31;;;18.18;43.31
33163;BME280;29282;45.656;11.302;2023-04-07T05:37:33;98362.59;;;18.18;43.33
33163;BME280;29282;45.656;11.302;2023-04-07T05:39:59;98363.03;;;18.20;43.06
33163;BME280;29282;45.656;11.302;2023-04-07T05:42:24;98357.56;;;18.20;43.06
33163;BME280;29282;45.656;11.302;2023-04-07T05:44:51;98361.94;;;18.21;42.97
33163;BME280;29282;45.656;11.302;2023-04-07T05:47:16;98360.78;;;18.22;43.10
33163;BME280;29282;45.656;11.302;2023-04-07T05:49:41;98358.03;;;18.22;43.06
33163;BME280;29282;45.656;11.302;2023-04-07T05:52:11;98361.41;;;18.28;42.96
33163;BME280;29282;45.656;11.302;2023-04-07T05:54:37;98355.34;;;18.64;42.29
33163;BME280;29282;45.656;11.302;2023-04-07T05:57:04;98356.78;;;18.91;41.77
33163;BME280;29282;45.656;11.302;2023-04-07T05:59:30;98354.34;;;18.90;41.65
33163;BME280;29282;45.656;11.302;2023-04-07T06:01:55;98362.16;;;18.88;41.72
33163;BME280;29282;45.656;11.302;2023-04-07T06:04:21;98358.44;;;18.84;41.92
33163;BME280;29282;45.656;11.302;2023-04-07T06:06:46;98349.25;;;19.00;41.59
33163;BME280;29282;45.656;11.302;2023-04-07T06:09:12;98355.69;;;19.38;40.80
33163;BME280;29282;45.656;11.302;2023-04-07T06:11:37;98357.09;;;19.44;40.68
33163;BME280;29282;45.656;11.302;2023-04-07T06:14:03;98354.31;;;19.32;41.07
33163;BME280;29282;45.656;11.302;2023-04-07T06:16:28;98351.88;;;19.18;41.39
33163;BME280;29282;45.656;11.302;2023-04-07T06:18:54;98350.50;;;19.24;41.41
33163;BME280;29282;45.656;11.302;2023-04-07T06:21:19;98355.38;;;19.52;40.68
33163;BME280;29282;45.656;11.302;2023-04-07T06:23:45;98350.94;;;19.59;40.64
33163;BME280;29282;45.656;11.302;2023-04-07T06:26:11;98354.00;;;19.45;41.07
33163;BME280;29282;45.656;11.302;2023-04-07T06:28:37;98357.06;;;19.32;41.40
33163;BME280;29282;45.656;11.302;2023-04-07T06:31:03;98353.25;;;19.24;41.59
33163;BME280;29282;45.656;11.302;2023-04-07T06:33:29;98351.38;;;19.49;41.08
33163;BME280;29282;45.656;11.302;2023-04-07T06:35:55;98351.56;;;19.65;40.80
33163;BME280;29282;45.656;11.302;2023-04-07T06:38:21;98353.56;;;19.56;40.99
33163;BME280;29282;45.656;11.302;2023-04-07T06:40:46;98349.53;;;19.41;41.49
33163;BME280;29282;45.656;11.302;2023-04-07T06:43:12;98348.69;;;19.28;41.83
33163;BME280;29282;45.656;11.302;2023-04-07T06:45:37;98345.38;;;19.35;41.61
33163;BME280;29282;45.656;11.302;2023-04-07T06:48:03;98350.94;;;19.59;41.08
33163;BME280;29282;45.656;11.302;2023-04-07T06:50:29;98348.88;;;19.56;41.09
33163;BME280;29282;45.656;11.302;2023-04-07T06:52:54;98353.53;;;19.43;41.50
33163;BME280;29282;45.656;11.302;2023-04-07T06:55:20;98343.31;;;19.32;41.70
33163;BME280;29282;45.656;11.302;2023-04-07T06:57:46;98340.66;;;19.23;41.79
33163;BME280;29282;45.656;11.302;2023-04-07T07:00:12;98331.22;;;19.45;41.28
33163;BME280;29282;45.656;11.302;2023-04-07T07:02:42;98338.97;;;19.64;40.90
33163;BME280;29282;45.656;11.302;2023-04-07T07:05:08;98335.81;;;19.53;41.31
33163;BME280;29282;45.656;11.302;2023-04-07T07:07:34;98329.63;;;19.44;41.70
33163;BME280;29282;45.656;11.302;2023-04-07T07:10:00;98325.38;;;19.34;41.72
33163;BME280;29282;45.656;11.302;2023-04-07T07:12:25;98329.78;;;19.27;41.95
33163;BME280;29282;45.656;11.302;2023-04-07T07:14:51;98326.88;;;19.44;41.71
33163;BME280;29282;45.656;11.302;2023-04-07T07:17:16;98321.91;;;19.70;41.08
33163;BME280;29282;45.656;11.302;2023-04-07T07:19:42;98326.03;;;19.64;41.23
33163;BME280;29282;45.656;11.302;2023-04-07T07:22:07;98325.97;;;19.52;41.59
33163;BME280;29282;45.656;11.302;2023-04-07T07:24:33;98327.19;;;19.42;41.67
33163;BME280;29282;45.656;11.302;2023-04-07T07:26:59;98319.06;;;19.34;42.11
33163;BME280;29282;45.656;11.302;2023-04-07T07:29:26;98324.13;;;19.44;41.87
33163;BME280;29282;45.656;11.302;2023-04-07T07:31:51;98325.09;;;19.73;41.24
33163;BME280;29282;45.656;11.302;2023-04-07T07:34:16;98320.88;;;19.75;41.20
33163;BME280;29282;45.656;11.302;2023-04-07T07:36:42;98317.28;;;19.62;41.57
33163;BME280;29282;45.656;11.302;2023-04-07T07:39:07;98322.75;;;19.50;41.68
33163;BME280;29282;45.656;11.302;2023-04-07T07:41:33;98322.38;;;19.39;42.25
33163;BME280;29282;45.656;11.302;2023-04-07T07:43:58;98317.13;;;19.46;41.72
33163;BME280;29282;45.656;11.302;2023-04-07T07:46:24;98327.84;;;19.73;41.15
33163;BME280;29282;45.656;11.302;2023-04-07T07:48:51;98321.09;;;19.82;41.00
33163;BME280;29282;45.656;11.302;2023-04-07T07:51:17;98312.97;;;19.74;41.17
33163;BME280;29282;45.656;11.302;2023-04-07T07:53:43;98310.97;;;19.62;41.46
33163;BME280;29282;45.656;11.302;2023-04-07T07:56:10;98323.69;;;19.54;41.64
33163;BME280;29282;45.656;11.302;2023-04-07T07:58:35;98322.75;;;19.50;41.79
33163;BME280;29282;45.656;11.302;2023-04-07T08:01:01;98319.38;;;19.65;41.52
33163;BME280;29282;45.656;11.302;2023-04-07T08:03:27;98323.53;;;19.84;41.06
33163;BME280;29282;45.656;11.302;2023-04-07T08:05:52;98326.28;;;19.84;41.10
33163;BME280;29282;45.656;11.302;2023-04-07T08:08:18;98323.25;;;19.77;41.33
33163;BME280;29282;45.656;11.302;2023-04-07T08:10:43;98316.28;;;19.67;41.54
33163;BME280;29282;45.656;11.302;2023-04-07T08:13:09;98314.41;;;19.59;41.77
33163;BME280;29282;45.656;11.302;2023-04-07T08:15:35;98317.16;;;19.59;42.01
33163;BME280;29282;45.656;11.302;2023-04-07T08:18:00;98311.47;;;19.76;41.40
33163;BME280;29282;45.656;11.302;2023-04-07T08:20:29;98306.91;;;19.92;41.05
33163;BME280;29282;45.656;11.302;2023-04-07T08:22:55;98307.94;;;19.88;41.37
33163;BME280;29282;45.656;11.302;2023-04-07T08:25:20;98313.41;;;19.76;41.20
33163;BME280;29282;45.656;11.302;2023-04-07T08:27:45;98315.47;;;19.66;41.67
33163;BME280;29282;45.656;11.302;2023-04-07T08:30:11;98312.47;;;19.59;42.00
33163;BME280;29282;45.656;11.302;2023-04-07T08:32:40;98315.31;;;19.63;41.85
33163;BME280;29282;45.656;11.302;2023-04-07T08:35:06;98315.38;;;19.87;41.44
33163;BME280;29282;45.656;11.302;2023-04-07T08:37:33;98317.31;;;19.99;41.08
33163;BME280;29282;45.656;11.302;2023-04-07T08:39:59;98315.03;;;19.89;41.32
33163;BME280;29282;45.656;11.302;2023-04-07T08:42:27;98312.75;;;19.79;41.58
33163;BME280;29282;45.656;11.302;2023-04-07T08:45:02;98315.13;;;19.68;41.84
33163;BME280;29282;45.656;11.302;2023-04-07T08:47:30;98315.03;;;19.64;42.01
33163;BME280;29282;45.656;11.302;2023-04-07T08:50:02;98305.84;;;19.73;41.84
33163;BME280;29282;45.656;11.302;2023-04-07T08:52:38;98305.19;;;20.00;41.20
33163;BME280;29282;45.656;11.302;2023-04-07T08:55:04;98308.38;;;20.02;41.12
33163;BME280;29282;45.656;11.302;2023-04-07T08:57:32;98298.19;;;19.90;41.52
33163;BME280;29282;45.656;11.302;2023-04-07T08:59:59;98298.53;;;19.77;41.82
33163;BME280;29282;45.656;11.302;2023-04-07T09:02:37;98295.22;;;19.71;42.09
33163;BME280;29282;45.656;11.302;2023-04-07T09:05:05;98289.94;;;19.66;42.22
33163;BME280;29282;45.656;11.302;2023-04-07T09:07:31;98286.63;;;19.85;41.65
33163;BME280;29282;45.656;11.302;2023-04-07T09:09:58;98282.47;;;20.03;41.26
33163;BME280;29282;45.656;11.302;2023-04-07T09:12:24;98283.53;;;19.99;41.34
33163;BME280;29282;45.656;11.302;2023-04-07T09:14:49;98280.56;;;19.91;41.52
33163;BME280;29282;45.656;11.302;2023-04-07T09:17:15;98278.25;;;19.81;41.83
33163;BME280;29282;45.656;11.302;2023-04-07T09:19:40;98283.88;;;19.73;42.18
33163;BME280;29282;45.656;11.302;2023-04-07T09:22:06;98277.81;;;19.67;42.05
33163;BME280;29282;45.656;11.302;2023-04-07T09:24:32;98277.56;;;19.84;41.54
33163;BME280;29282;45.656;11.302;2023-04-07T09:27:17;98278.13;;;20.02;41.47
33163;BME280;29282;45.656;11.302;2023-04-07T09:29:47;98271.94;;;19.93;41.69
33163;BME280;29282;45.656;11.302;2023-04-07T09:32:35;98269.91;;;19.78;41.85
33163;BME280;29282;45.656;11.302;2023-04-07T09:35:05;98283.31;;;19.67;42.23
33163;BME280;29282;45.656;11.302;2023-04-07T09:37:31;98276.72;;;19.59;42.47
33163;BME280;29282;45.656;11.302;2023-04-07T09:39:56;98275.13;;;19.58;42.46
33163;BME280;29282;45.656;11.302;2023-04-07T09:42:22;98276.53;;;19.77;41.99
33163;BME280;29282;45.656;11.302;2023-04-07T09:44:47;98277.81;;;19.91;41.54
33163;BME280;29282;45.656;11.302;2023-04-07T09:47:13;98280.88;;;19.90;41.80
33163;BME280;29282;45.656;11.302;2023-04-07T09:49:51;98273.09;;;19.80;41.87
33163;BME280;29282;45.656;11.302;2023-04-07T09:52:18;98270.13;;;19.73;42.07
33163;BME280;29282;45.656;11.302;2023-04-07T09:54:45;98264.25;;;19.62;42.24
33163;BME280;29282;45.656;11.302;2023-04-07T09:57:11;98263.34;;;19.58;42.37
33163;BME280;29282;45.656;11.302;2023-04-07T09:59:39;98258.22;;;19.81;41.85
33163;BME280;29282;45.656;11.302;2023-04-07T10:02:09;98253.28;;;19.99;41.51
33163;BME280;29282;45.656;11.302;2023-04-07T10:04:35;98248.03;;;19.93;41.63
33163;BME280;29282;45.656;11.302;2023-04-07T10:07:01;98243.31;;;19.82;41.97
33163;BME280;29282;45.656;11.302;2023-04-07T10:09:29;98244.59;;;19.72;42.11
33163;BME280;29282;45.656;11.302;2023-04-07T10:11:56;98243.22;;;19.66;42.35
33163;BME280;29282;45.656;11.302;2023-04-07T10:14:34;98239.19;;;19.63;42.54
33163;BME280;29282;45.656;11.302;2023-04-07T10:17:02;98237.47;;;19.83;41.88
33163;BME280;29282;45.656;11.302;2023-04-07T10:19:31;98242.16;;;20.07;41.29
33163;BME280;29282;45.656;11.302;2023-04-07T10:21:58;98247.56;;;20.04;41.44
33163;BME280;29282;45.656;11.302;2023-04-07T10:27:09;98240.56;;;19.82;41.96
33163;BME280;29282;45.656;11.302;2023-04-07T10:29:41;98248.59;;;19.75;42.17
33163;BME280;29282;45.656;11.302;2023-04-07T10:32:08;98244.47;;;19.68;42.23
33163;BME280;29282;45.656;11.302;2023-04-07T10:37:15;98240.19;;;20.08;41.40
33163;BME280;29282;45.656;11.302;2023-04-07T10:39:50;98244.09;;;20.07;41.34
33163;BME280;29282;45.656;11.302;2023-04-07T10:45:07;98239.09;;;19.84;41.97
33163;BME280;29282;45.656;11.302;2023-04-07T10:47:34;98234.97;;;19.78;42.10
33163;BME280;29282;45.656;11.302;2023-04-07T10:50:17;98230.50;;;19.74;42.40
33163;BME280;29282;45.656;11.302;2023-04-07T10:52:44;98233.69;;;19.88;42.05
33163;BME280;29282;45.656;11.302;2023-04-07T11:03:36;98217.88;;;19.85;42.07
33163;BME280;29282;45.656;11.302;2023-04-07T11:08:40;98220.22;;;19.70;42.51
33163;BME280;29282;45.656;11.302;2023-04-07T11:11:07;98217.63;;;19.90;42.02
33163;BME280;29282;45.656;11.302;2023-04-07T11:13:44;98214.41;;;20.12;41.57
33163;BME280;29282;45.656;11.302;2023-04-07T11:16:14;98213.97;;;20.10;41.49
33163;BME280;29282;45.656;11.302;2023-04-07T11:18:41;98215.25;;;20.01;41.85
33163;BME280;29282;45.656;11.302;2023-04-07T11:21:07;98211.81;;;19.91;42.08
33163;BME280;29282;45.656;11.302;2023-04-07T11:23:40;98217.88;;;19.85;42.31
33163;BME280;29282;45.656;11.302;2023-04-07T11:26:08;98217.31;;;19.79;42.35
33163;BME280;29282;45.656;11.302;2023-04-07T11:28:35;98209.19;;;19.83;42.25
33163;BME280;29282;45.656;11.302;2023-04-07T11:31:10;98210.63;;;20.05;41.89
33163;BME280;29282;45.656;11.302;2023-04-07T11:33:35;98204.44;;;20.08;41.67
33163;BME280;29282;45.656;11.302;2023-04-07T11:36:03;98200.69;;;20.00;41.78
33163;BME280;29282;45.656;11.302;2023-04-07T11:38:34;98202.28;;;19.89;42.25
33163;BME280;29282;45.656;11.302;2023-04-07T11:41:09;98200.50;;;19.81;42.32
33163;BME280;29282;45.656;11.302;2023-04-07T11:43:36;98200.38;;;19.77;42.51
33163;BME280;29282;45.656;11.302;2023-04-07T11:46:12;98186.28;;;19.79;42.52
33163;BME280;29282;45.656;11.302;2023-04-07T11:48:39;98195.63;;;20.02;42.00
33163;BME280;29282;45.656;11.302;2023-04-07T11:51:06;98187.47;;;20.18;41.58
33163;BME280;29282;45.656;11.302;2023-04-07T11:53:39;98187.16;;;20.07;41.96
33163;BME280;29282;45.656;11.302;2023-04-07T11:56:15;98187.63;;;19.97;42.12
33163;BME280;29282;45.656;11.302;2023-04-07T11:58:53;98191.19;;;19.85;42.54
33163;BME280;29282;45.656;11.302;2023-04-07T12:01:20;98194.53;;;19.79;42.58
33163;BME280;29282;45.656;11.302;2023-04-07T12:04:01;98190.75;;;19.71;42.95
33163;BME280;29282;45.656;11.302;2023-04-07T12:06:32;98185.38;;;19.75;42.77
33163;BME280;29282;45.656;11.302;2023-04-07T12:09:02;98182.47;;;19.95;42.40
33163;BME280;29282;45.656;11.302;2023-04-07T12:11:28;98177.66;;;19.92;42.41
33163;BME280;29282;45.656;11.302;2023-04-07T12:13:54;98181.69;;;19.83;42.57
33163;BME280;29282;45.656;11.302;2023-04-07T12:16:21;98176.34;;;19.74;42.71
33163;BME280;29282;45.656;11.302;2023-04-07T12:18:47;98184.81;;;19.69;42.92
33163;BME280;29282;45.656;11.302;2023-04-07T12:21:13;98181.47;;;19.63;43.00
33163;BME280;29282;45.656;11.302;2023-04-07T12:23:39;98186.97;;;19.63;43.08
33163;BME280;29282;45.656;11.302;2023-04-07T12:26:05;98181.00;;;19.86;42.77
33163;BME280;29282;45.656;11.302;2023-04-07T12:28:30;98183.94;;;19.93;42.50
33163;BME280;29282;45.656;11.302;2023-04-07T12:30:56;98186.16;;;19.87;42.65
33163;BME280;29282;45.656;11.302;2023-04-07T12:33:21;98172.22;;;19.80;42.95
33163;BME280;29282;45.656;11.302;2023-04-07T12:35:47;98179.78;;;19.71;43.17
33163;BME280;29282;45.656;11.302;2023-04-07T12:38:13;98180.34;;;19.64;43.38
33163;BME280;29282;45.656;11.302;2023-04-07T12:40:38;98180.34;;;19.64;43.52
33163;BME280;29282;45.656;11.302;2023-04-07T12:43:04;98173.53;;;19.86;43.04
33163;BME280;29282;45.656;11.302;2023-04-07T12:45:31;98176.63;;;19.97;42.76
33163;BME280;29282;45.656;11.302;2023-04-07T12:47:57;98172.94;;;19.93;42.78
33163;BME280;29282;45.656;11.302;2023-04-07T12:50:24;98171.84;;;19.82;43.13
33163;BME280;29282;45.656;11.302;2023-04-07T12:52:52;98176.34;;;19.74;43.37
33163;BME280;29282;45.656;11.302;2023-04-07T12:55:18;98173.69;;;19.65;43.42
33163;BME280;29282;45.656;11.302;2023-04-07T12:57:44;98177.09;;;19.62;43.70
33163;BME280;29282;45.656;11.302;2023-04-07T13:00:10;98166.34;;;19.69;43.59
33163;BME280;29282;45.656;11.302;2023-04-07T13:02:36;98163.69;;;19.98;42.98
33163;BME280;29282;45.656;11.302;2023-04-07T13:05:02;98158.19;;;19.98;42.98
33163;BME280;29282;45.656;11.302;2023-04-07T13:07:27;98159.91;;;19.90;43.24
33163;BME280;29282;45.656;11.302;2023-04-07T13:09:53;98159.16;;;19.77;43.48
33163;BME280;29282;45.656;11.302;2023-04-07T13:12:19;98160.84;;;19.69;43.78